sensor_id;sensor_type;location;lat;lon;timestamp;pressure;altitude;pressure_sealevel;temperature;humidity
20077;BME280;12348;42.710;23.378;2024-03-07T00:01:54;94917.84;;;6.79;100.00
20077;BME280;12348;42.710;23.378;2024-03-07T00:04:21;94919.72;;;6.84;100.00
20077;BME280;12348;42.710;23.378;2024-03-07T00:06:48;94918.38;;;6.81;100.00
20077;BME280;12348;42.710;23.378;2024-03-07T00:09:17;94924.28;;;6.73;100.00
20077;BME280;12348;42.710;23.378;2024-03-07T00:11:44;94923.19;;;6.74;100.00
20077;BME280;12348;42.710;23.378;2024-03-07T00:14:11;94924.28;;;6.73;100.00
20077;BME280;12348;42.710;23.378;2024-03-07T00:16:37;94918.13;;;6.62;100.00
20077;BME280;12348;42.710;23.378;2024-03-07T00:19:06;94915.72;;;6.71;100.00
20077;BME280;12348;42.710;23.378;2024-03-07T00:21:33;94911.41;;;6.75;100.00
20077;BME280;12348;42.710;23.378;2024-03-07T00:24:00;94913.56;;;6.68;100.00
20077;BME280;12348;42.710;23.378;2024-03-07T00:26:26;94911.72;;;6.63;100.00
20077;BME280;12348;42.710;23.378;2024-03-07T00:28:53;94909.84;;;6.59;100.00
20077;BME280;12348;42.710;23.378;2024-03-07T00:31:20;94905.00;;;6.61;100.00
20077;BME280;12348;42.710;23.378;2024-03-07T00:33:47;94897.81;;;6.61;100.00
20077;BME280;12348;42.710;23.378;2024-03-07T00:36:15;94897.56;;;6.58;100.00
20077;BME280;12348;42.710;23.378;2024-03-07T00:38:42;94903.16;;;6.56;100.00
20077;BME280;12348;42.710;23.378;2024-03-07T00:41:09;94895.66;;;6.53;100.00
20077;BME280;12348;42.710;23.378;2024-03-07T00:43:35;94892.47;;;6.51;100.00
20077;BME280;12348;42.710;23.378;2024-03-07T00:46:02;94895.69;;;6.48;100.00
20077;BME280;12348;42.710;23.378;2024-03-07T00:48:31;94892.22;;;6.58;100.00
20077;BME280;12348;42.710;23.378;2024-03-07T00:50:58;94895.16;;;6.51;100.00
20077;BME280;12348;42.710;23.378;2024-03-07T00:53:26;94902.91;;;6.52;100.00
20077;BME280;12348;42.710;23.378;2024-03-07T00:55:53;94893.56;;;6.50;100.00
20077;BME280;12348;42.710;23.378;2024-03-07T00:58:19;94891.69;;;6.50;100.00
20077;BME280;12348;42.710;23.378;2024-03-07T01:00:46;94893.81;;;6.48;100.00
20077;BME280;12348;42.710;23.378;2024-03-07T01:03:13;94883.09;;;6.48;100.00
20077;BME280;12348;42.710;23.378;2024-03-07T01:05:40;94883.66;;;6.45;100.00
20077;BME280;12348;42.710;23.378;2024-03-07T01:08:06;94878.03;;;6.37;100.00
20077;BME280;12348;42.710;23.378;2024-03-07T01:10:35;94872.44;;;6.33;100.00
20077;BME280;12348;42.710;23.378;2024-03-07T01:13:02;94869.75;;;6.33;100.00
20077;BME280;12348;42.710;23.378;2024-03-07T01:15:31;94879.38;;;6.29;100.00
20077;BME280;12348;42.710;23.378;2024-03-07T01:17:58;94870.31;;;6.25;100.00
20077;BME280;12348;42.710;23.378;2024-03-07T01:20:25;94872.44;;;6.28;100.00
20077;BME280;12348;42.710;23.378;2024-03-07T01:22:52;94879.91;;;6.31;100.00
20077;BME280;12348;42.710;23.378;2024-03-07T01:25:18;94874.31;;;6.32;100.00
20077;BME280;12348;42.710;23.378;2024-03-07T01:27:48;94872.16;;;6.35;100.00
20077;BME280;12348;42.710;23.378;2024-03-07T01:30:16;94859.63;;;6.35;100.00
20077;BME280;12348;42.710;23.378;2024-03-07T01:32:43;94863.34;;;6.29;100.00
20077;BME280;12348;42.710;23.378;2024-03-07T01:35:09;94851.31;;;6.26;100.00
20077;BME280;12348;42.710;23.378;2024-03-07T01:37:36;94872.69;;;6.26;100.00
20077;BME280;12348;42.710;23.378;2024-03-07T01:40:03;94862.28;;;6.35;100.00
20077;BME280;12348;42.710;23.378;2024-03-07T01:42:30;94862.28;;;6.30;100.00
20077;BME280;12348;42.710;23.378;2024-03-07T01:44:58;94867.88;;;6.23;100.00
20077;BME280;12348;42.710;23.378;2024-03-07T01:47:25;94858.53;;;6.21;100.00
20077;BME280;12348;42.710;23.378;2024-03-07T01:49:52;94851.59;;;6.15;100.00
20077;BME280;12348;42.710;23.378;2024-03-07T01:52:19;94845.19;;;6.21;100.00
20077;BME280;12348;42.710;23.378;2024-03-07T01:54:47;94847.59;;;6.27;100.00
20077;BME280;12348;42.710;23.378;2024-03-07T01:57:16;94851.84;;;6.18;100.00
20077;BME280;12348;42.710;23.378;2024-03-07T01:59:43;94855.34;;;6.14;100.00
20077;BME280;12348;42.710;23.378;2024-03-07T02:02:12;94851.06;;;6.13;100.00
20077;BME280;12348;42.710;23.378;2024-03-07T02:04:39;94868.97;;;6.12;100.00
20077;BME280;12348;42.710;23.378;2024-03-07T02:07:06;94872.44;;;6.07;100.00
20077;BME280;12348;42.710;23.378;2024-03-07T02:09:36;94878.59;;;6.13;100.00
20077;BME280;12348;42.710;23.378;2024-03-07T02:12:03;94865.50;;;6.12;100.00
20077;BME280;12348;42.710;23.378;2024-03-07T02:14:30;94872.44;;;6.07;100.00
20077;BME280;12348;42.710;23.378;2024-03-07T02:16:56;94868.16;;;6.06;100.00
20077;BME280;12348;42.710;23.378;2024-03-07T02:19:25;94872.69;;;5.91;100.00
20077;BME280;12348;42.710;23.378;2024-03-07T02:21:54;94863.91;;;6.05;100.00
20077;BME280;12348;42.710;23.378;2024-03-07T02:24:21;94873.78;;;6.15;100.00
20077;BME280;12348;42.710;23.378;2024-03-07T02:26:49;94851.34;;;6.06;100.00
20077;BME280;12348;42.710;23.378;2024-03-07T02:29:15;94857.75;;;6.05;100.00
20077;BME280;12348;42.710;23.378;2024-03-07T02:31:45;94853.22;;;6.05;100.00
20077;BME280;12348;42.710;23.378;2024-03-07T02:34:11;94847.06;;;6.00;100.00
20077;BME280;12348;42.710;23.378;2024-03-07T02:36:38;94841.97;;;5.98;100.00
20077;BME280;12348;42.710;23.378;2024-03-07T02:39:06;94851.59;;;5.99;100.00
20077;BME280;12348;42.710;23.378;2024-03-07T02:41:33;94845.19;;;5.95;100.00
20077;BME280;12348;42.710;23.378;2024-03-07T02:44:00;94868.66;;;5.88;100.00
20077;BME280;12348;42.710;23.378;2024-03-07T02:46:28;94864.91;;;5.84;100.00
20077;BME280;12348;42.710;23.378;2024-03-07T02:48:57;94870.50;;;5.82;100.00
20077;BME280;12348;42.710;23.378;2024-03-07T02:51:24;94879.59;;;5.76;100.00
20077;BME280;12348;42.710;23.378;2024-03-07T02:53:51;94880.16;;;5.83;100.00
20077;BME280;12348;42.710;23.378;2024-03-07T02:56:19;94868.38;;;5.74;100.00
20077;BME280;12348;42.710;23.378;2024-03-07T02:58:45;94870.78;;;5.71;100.00
20077;BME280;12348;42.710;23.378;2024-03-07T03:01:12;94869.69;;;5.62;100.00
20077;BME280;12348;42.710;23.378;2024-03-07T03:03:39;94870.75;;;5.55;100.00
20077;BME280;12348;42.710;23.378;2024-03-07T03:06:07;94883.03;;;5.51;100.00
20077;BME280;12348;42.710;23.378;2024-03-07T03:08:34;94884.63;;;5.47;100.00
20077;BME280;12348;42.710;23.378;2024-03-07T03:11:01;94888.34;;;5.41;100.00
20077;BME280;12348;42.710;23.378;2024-03-07T03:13:30;94896.34;;;5.41;100.00
20077;BME280;12348;42.710;23.378;2024-03-07T03:15:57;94892.88;;;5.30;100.00
20077;BME280;12348;42.710;23.378;2024-03-07T03:18:23;94884.81;;;5.25;100.00
20077;BME280;12348;42.710;23.378;2024-03-07T03:20:50;94882.66;;;5.17;100.00
20077;BME280;12348;42.710;23.378;2024-03-07T03:23:18;94884.75;;;5.10;100.00
20077;BME280;12348;42.710;23.378;2024-03-07T03:25:46;94888.72;;;4.97;100.00
20077;BME280;12348;42.710;23.378;2024-03-07T03:28:13;94879.66;;;4.98;100.00
20077;BME280;12348;42.710;23.378;2024-03-07T03:30:41;94886.63;;;5.09;100.00
20077;BME280;12348;42.710;23.378;2024-03-07T03:33:08;94901.06;;;5.08;100.00
20077;BME280;12348;42.710;23.378;2024-03-07T03:35:35;94894.38;;;5.11;100.00
20077;BME280;12348;42.710;23.378;2024-03-07T03:38:02;94893.28;;;5.07;100.00
20077;BME280;12348;42.710;23.378;2024-03-07T03:40:29;94894.34;;;5.01;100.00
20077;BME280;12348;42.710;23.378;2024-03-07T03:42:56;94903.16;;;5.11;100.00
20077;BME280;12348;42.710;23.378;2024-03-07T03:45:23;94911.72;;;5.08;100.00
20077;BME280;12348;42.710;23.378;2024-03-07T03:47:52;94919.16;;;5.06;100.00
20077;BME280;12348;42.710;23.378;2024-03-07T03:50:19;94901.56;;;5.05;100.00
20077;BME280;12348;42.710;23.378;2024-03-07T03:52:46;94889.53;;;4.98;100.00
20077;BME280;12348;42.710;23.378;2024-03-07T03:55:12;94893.50;;;4.90;100.00
20077;BME280;12348;42.710;23.378;2024-03-07T03:57:41;94899.31;;;4.82;100.00
20077;BME280;12348;42.710;23.378;2024-03-07T04:00:09;94884.34;;;4.76;100.00
20077;BME280;12348;42.710;23.378;2024-03-07T04:02:39;94870.88;;;4.55;100.00
20077;BME280;12348;42.710;23.378;2024-03-07T04:05:08;94874.84;;;4.48;100.00
20077;BME280;12348;42.710;23.378;2024-03-07T04:07:35;94883.63;;;4.43;100.00
20077;BME280;12348;42.710;23.378;2024-03-07T04:10:03;94870.69;;;4.25;100.00
20077;BME280;12348;42.710;23.378;2024-03-07T04:12:32;94888.91;;;4.38;100.00
20077;BME280;12348;42.710;23.378;2024-03-07T04:14:59;94882.31;;;4.46;100.00
20077;BME280;12348;42.710;23.378;2024-03-07T04:17:26;94881.69;;;4.33;100.00
20077;BME280;12348;42.710;23.378;2024-03-07T04:19:53;94889.91;;;4.27;100.00
20077;BME280;12348;42.710;23.378;2024-03-07T04:22:21;94884.78;;;4.20;100.00
20077;BME280;12348;42.710;23.378;2024-03-07T04:24:48;94890.91;;;4.21;100.00
20077;BME280;12348;42.710;23.378;2024-03-07T04:27:19;94901.03;;;4.19;100.00
20077;BME280;12348;42.710;23.378;2024-03-07T04:29:47;94892.50;;;4.17;100.00
20077;BME280;12348;42.710;23.378;2024-03-07T04:32:14;94899.78;;;4.31;100.00
20077;BME280;12348;42.710;23.378;2024-03-07T04:34:43;94895.75;;;4.24;100.00
20077;BME280;12348;42.710;23.378;2024-03-07T04:37:09;94902.84;;;4.13;100.00
20077;BME280;12348;42.710;23.378;2024-03-07T04:39:38;94899.34;;;4.07;100.00
20077;BME280;12348;42.710;23.378;2024-03-07T04:42:05;94897.69;;;4.01;100.00
20077;BME280;12348;42.710;23.378;2024-03-07T04:44:33;94894.47;;;3.99;100.00
20077;BME280;12348;42.710;23.378;2024-03-07T04:47:01;94907.84;;;4.04;100.00
20077;BME280;12348;42.710;23.378;2024-03-07T04:49:30;94891.88;;;4.04;100.00
20077;BME280;12348;42.710;23.378;2024-03-07T04:51:59;94901.97;;;4.02;100.00
20077;BME280;12348;42.710;23.378;2024-03-07T04:54:28;94897.69;;;4.01;100.00
20077;BME280;12348;42.710;23.378;2024-03-07T04:56:56;94900.63;;;4.00;100.00
20077;BME280;12348;42.710;23.378;2024-03-07T04:59:23;94899.00;;;3.99;100.00
20077;BME280;12348;42.710;23.378;2024-03-07T05:01:50;94909.16;;;4.02;100.00
20077;BME280;12348;42.710;23.378;2024-03-07T05:04:17;94917.41;;;4.00;100.00
20077;BME280;12348;42.710;23.378;2024-03-07T05:06:44;94920.72;;;4.18;100.00
20077;BME280;12348;42.710;23.378;2024-03-07T05:09:13;94929.00;;;4.16;100.00
20077;BME280;12348;42.710;23.378;2024-03-07T05:11:48;94920.72;;;4.18;100.00
20077;BME280;12348;42.710;23.378;2024-03-07T05:14:17;94923.41;;;4.18;100.00
20077;BME280;12348;42.710;23.378;2024-03-07T05:16:42;94928.78;;;4.23;100.00
20077;BME280;12348;42.710;23.378;2024-03-07T05:19:09;94921.63;;;4.28;100.00
20077;BME280;12348;42.710;23.378;2024-03-07T05:21:36;94932.56;;;4.27;100.00
20077;BME280;12348;42.710;23.378;2024-03-07T05:24:06;94920.28;;;4.26;100.00
20077;BME280;12348;42.710;23.378;2024-03-07T05:26:33;94923.78;;;4.31;100.00
20077;BME280;12348;42.710;23.378;2024-03-07T05:29:02;94913.13;;;4.31;100.00
20077;BME280;12348;42.710;23.378;2024-03-07T05:31:36;94921.97;;;4.37;100.00
20077;BME280;12348;42.710;23.378;2024-03-07T05:34:04;94922.28;;;4.46;100.00
20077;BME280;12348;42.710;23.378;2024-03-07T05:36:33;94926.06;;;4.55;100.00
20077;BME280;12348;42.710;23.378;2024-03-07T05:39:01;94925.34;;;4.65;100.00
20077;BME280;12348;42.710;23.378;2024-03-07T05:41:33;94933.34;;;4.65;100.00
20077;BME280;12348;42.710;23.378;2024-03-07T05:44:00;94934.47;;;4.74;100.00
20077;BME280;12348;42.710;23.378;2024-03-07T05:46:27;94934.66;;;4.62;100.00
20077;BME280;12348;42.710;23.378;2024-03-07T05:48:55;94927.25;;;4.69;100.00
20077;BME280;12348;42.710;23.378;2024-03-07T05:51:22;94935.09;;;4.86;100.00
20077;BME280;12348;42.710;23.378;2024-03-07T05:53:50;94932.50;;;5.01;100.00
20077;BME280;12348;42.710;23.378;2024-03-07T05:56:17;94925.53;;;4.95;100.00
20077;BME280;12348;42.710;23.378;2024-03-07T05:58:45;94935.13;;;4.96;100.00
20077;BME280;12348;42.710;23.378;2024-03-07T06:01:14;94931.88;;;4.89;100.00
20077;BME280;12348;42.710;23.378;2024-03-07T06:03:41;94937.03;;;5.01;100.00
20077;BME280;12348;42.710;23.378;2024-03-07T06:06:09;94947.50;;;5.13;100.00
20077;BME280;12348;42.710;23.378;2024-03-07T06:08:38;94947.44;;;5.07;100.00
20077;BME280;12348;42.710;23.378;2024-03-07T06:11:07;94951.19;;;5.06;100.00
20077;BME280;12348;42.710;23.378;2024-03-07T06:13:34;94945.06;;;5.11;100.00
20077;BME280;12348;42.710;23.378;2024-03-07T06:16:01;94954.78;;;5.27;100.00
20077;BME280;12348;42.710;23.378;2024-03-07T06:18:33;94955.63;;;5.43;100.00
20077;BME280;12348;42.710;23.378;2024-03-07T06:21:00;94962.50;;;5.24;100.00
20077;BME280;12348;42.710;23.378;2024-03-07T06:23:28;94965.91;;;5.14;100.00
20077;BME280;12348;42.710;23.378;2024-03-07T06:25:55;94951.03;;;5.23;100.00
20077;BME280;12348;42.710;23.378;2024-03-07T06:28:24;94969.59;;;5.66;100.00
20077;BME280;12348;42.710;23.378;2024-03-07T06:30:54;94978.63;;;5.54;100.00
20077;BME280;12348;42.710;23.378;2024-03-07T06:33:21;94988.41;;;5.33;100.00
20077;BME280;12348;42.710;23.378;2024-03-07T06:35:48;94985.69;;;5.18;100.00
20077;BME280;12348;42.710;23.378;2024-03-07T06:38:14;94986.94;;;5.05;100.00
20077;BME280;12348;42.710;23.378;2024-03-07T06:40:43;94976.13;;;4.80;100.00
20077;BME280;12348;42.710;23.378;2024-03-07T06:43:10;94969.13;;;4.74;100.00
20077;BME280;12348;42.710;23.378;2024-03-07T06:45:37;94964.66;;;4.79;100.00
20077;BME280;12348;42.710;23.378;2024-03-07T06:48:05;94968.13;;;4.80;100.00
20077;BME280;12348;42.710;23.378;2024-03-07T06:50:33;94959.63;;;4.88;100.00
20077;BME280;12348;42.710;23.378;2024-03-07T06:53:00;94959.41;;;4.95;100.00
20077;BME280;12348;42.710;23.378;2024-03-07T06:55:27;94970.63;;;4.97;100.00
20077;BME280;12348;42.710;23.378;2024-03-07T06:57:55;94968.19;;;4.90;100.00
20077;BME280;12348;42.710;23.378;2024-03-07T07:00:22;94973.81;;;4.94;100.00
20077;BME280;12348;42.710;23.378;2024-03-07T07:02:48;94968.44;;;4.89;100.00
20077;BME280;12348;42.710;23.378;2024-03-07T07:05:16;94972.16;;;5.40;100.00
20077;BME280;12348;42.710;23.378;2024-03-07T07:07:43;94975.78;;;5.14;100.00
20077;BME280;12348;42.710;23.378;2024-03-07T07:10:11;94978.75;;;5.22;100.00
20077;BME280;12348;42.710;23.378;2024-03-07T07:12:41;94966.03;;;5.34;100.00
20077;BME280;12348;42.710;23.378;2024-03-07T07:15:10;94963.38;;;5.45;100.00
20077;BME280;12348;42.710;23.378;2024-03-07T07:17:37;94965.56;;;5.53;100.00
20077;BME280;12348;42.710;23.378;2024-03-07T07:20:05;94953.56;;;5.66;100.00
20077;BME280;12348;42.710;23.378;2024-03-07T07:22:36;94955.75;;;5.84;100.00
20077;BME280;12348;42.710;23.378;2024-03-07T07:25:03;94956.91;;;6.03;100.00
20077;BME280;12348;42.710;23.378;2024-03-07T07:27:31;94950.66;;;5.77;100.00
20077;BME280;12348;42.710;23.378;2024-03-07T07:29:58;94953.41;;;5.93;100.00
20077;BME280;12348;42.710;23.378;2024-03-07T07:32:26;94943.25;;;5.95;100.00
20077;BME280;12348;42.710;23.378;2024-03-07T07:34:54;94956.13;;;6.34;100.00
20077;BME280;12348;42.710;23.378;2024-03-07T07:37:21;94956.66;;;6.56;100.00
20077;BME280;12348;42.710;23.378;2024-03-07T07:39:48;94956.66;;;6.51;100.00
20077;BME280;12348;42.710;23.378;2024-03-07T07:42:15;94960.41;;;6.65;100.00
20077;BME280;12348;42.710;23.378;2024-03-07T07:44:41;94961.22;;;6.55;100.00
20077;BME280;12348;42.710;23.378;2024-03-07T07:47:09;94954.25;;;6.65;100.00
20077;BME280;12348;42.710;23.378;2024-03-07T07:49:38;94954.78;;;6.77;100.00
20077;BME280;12348;42.710;23.378;2024-03-07T07:52:07;94956.38;;;6.88;100.00
20077;BME280;12348;42.710;23.378;2024-03-07T07:54:34;94934.97;;;6.88;100.00
20077;BME280;12348;42.710;23.378;2024-03-07T07:57:00;94943.56;;;6.44;100.00
20077;BME280;12348;42.710;23.378;2024-03-07T07:59:27;94951.56;;;6.49;100.00
20077;BME280;12348;42.710;23.378;2024-03-07T08:01:54;94947.81;;;6.61;100.00
20077;BME280;12348;42.710;23.378;2024-03-07T08:04:21;94953.16;;;6.61;100.00
20077;BME280;12348;42.710;23.378;2024-03-07T08:06:49;94942.50;;;6.50;100.00
20077;BME280;12348;42.710;23.378;2024-03-07T08:09:17;94950.50;;;6.76;100.00
20077;BME280;12348;42.710;23.378;2024-03-07T08:11:45;94944.38;;;6.50;100.00
20077;BME280;12348;42.710;23.378;2024-03-07T08:14:15;94949.94;;;6.84;100.00
20077;BME280;12348;42.710;23.378;2024-03-07T08:16:44;94959.06;;;6.42;100.00
20077;BME280;12348;42.710;23.378;2024-03-07T08:19:14;94961.22;;;6.55;100.00
20077;BME280;12348;42.710;23.378;2024-03-07T08:21:41;94967.34;;;6.30;100.00
20077;BME280;12348;42.710;23.378;2024-03-07T08:24:09;94971.66;;;6.62;100.00
20077;BME280;12348;42.710;23.378;2024-03-07T08:26:39;94980.47;;;6.47;100.00
20077;BME280;12348;42.710;23.378;2024-03-07T08:29:09;94981.78;;;6.35;100.00
20077;BME280;12348;42.710;23.378;2024-03-07T08:31:37;94985.81;;;6.37;100.00
20077;BME280;12348;42.710;23.378;2024-03-07T08:34:04;94983.41;;;6.41;100.00
20077;BME280;12348;42.710;23.378;2024-03-07T08:36:31;94978.28;;;6.19;100.00
20077;BME280;12348;42.710;23.378;2024-03-07T08:38:58;94998.94;;;6.39;100.00
20077;BME280;12348;42.710;23.378;2024-03-07T08:41:27;95000.28;;;6.46;100.00
20077;BME280;12348;42.710;23.378;2024-03-07T08:43:56;95009.09;;;6.47;100.00
20077;BME280;12348;42.710;23.378;2024-03-07T08:46:23;95007.22;;;6.68;100.00
20077;BME280;12348;42.710;23.378;2024-03-07T08:48:50;94998.91;;;6.44;100.00
20077;BME280;12348;42.710;23.378;2024-03-07T08:51:17;95023.50;;;6.41;100.00
20077;BME280;12348;42.710;23.378;2024-03-07T08:53:44;95021.09;;;6.29;100.00
20077;BME280;12348;42.710;23.378;2024-03-07T08:56:13;95036.38;;;6.44;100.00
20077;BME280;12348;42.710;23.378;2024-03-07T08:58:41;95018.97;;;6.51;100.00
20077;BME280;12348;42.710;23.378;2024-03-07T09:01:09;95023.00;;;6.90;100.00
20077;BME280;12348;42.710;23.378;2024-03-07T09:03:35;95024.88;;;7.10;100.00
20077;BME280;12348;42.710;23.378;2024-03-07T09:06:02;95030.22;;;7.10;100.00
20077;BME280;12348;42.710;23.378;2024-03-07T09:08:29;95021.13;;;7.00;100.00
20077;BME280;12348;42.710;23.378;2024-03-07T09:10:56;95006.63;;;7.17;100.00
20077;BME280;12348;42.710;23.378;2024-03-07T09:13:23;95017.91;;;6.98;100.00
20077;BME280;12348;42.710;23.378;2024-03-07T09:15:52;95009.59;;;7.10;100.00
20077;BME280;12348;42.710;23.378;2024-03-07T09:18:18;95011.41;;;7.35;100.00
20077;BME280;12348;42.710;23.378;2024-03-07T09:20:45;95016.44;;;7.62;100.00
20077;BME280;12348;42.710;23.378;2024-03-07T09:23:14;95017.81;;;7.55;100.00
20077;BME280;12348;42.710;23.378;2024-03-07T09:25:41;95014.66;;;7.32;100.00
20077;BME280;12348;42.710;23.378;2024-03-07T09:28:08;95020.53;;;7.24;100.00
20077;BME280;12348;42.710;23.378;2024-03-07T09:30:35;95027.50;;;7.30;100.00
20077;BME280;12348;42.710;23.378;2024-03-07T09:33:05;95015.91;;;7.50;100.00
20077;BME280;12348;42.710;23.378;2024-03-07T09:35:35;95027.31;;;7.86;100.00
20077;BME280;12348;42.710;23.378;2024-03-07T09:38:03;95032.56;;;8.12;100.00
20077;BME280;12348;42.710;23.378;2024-03-07T09:40:29;95035.72;;;8.29;100.00
20077;BME280;12348;42.710;23.378;2024-03-07T09:42:56;95024.75;;;8.20;100.00
20077;BME280;12348;42.710;23.378;2024-03-07T09:45:29;95020.72;;;8.23;100.00
20077;BME280;12348;42.710;23.378;2024-03-07T09:47:56;95022.44;;;8.04;100.00
20077;BME280;12348;42.710;23.378;2024-03-07T09:50:25;95025.88;;;8.09;100.00
20077;BME280;12348;42.710;23.378;2024-03-07T09:52:53;95021.16;;;8.35;100.00
20077;BME280;12348;42.710;23.378;2024-03-07T09:55:20;95021.06;;;8.56;100.00
20077;BME280;12348;42.710;23.378;2024-03-07T09:57:49;95030.22;;;8.49;100.00
20077;BME280;12348;42.710;23.378;2024-03-07T10:00:19;95029.22;;;8.80;100.00
20077;BME280;12348;42.710;23.378;2024-03-07T10:02:54;95021.34;;;8.88;100.00
20077;BME280;12348;42.710;23.378;2024-03-07T10:05:22;95020.19;;;8.99;100.00
20077;BME280;12348;42.710;23.378;2024-03-07T10:07:52;95025.06;;;8.92;100.00
20077;BME280;12348;42.710;23.378;2024-03-07T10:10:19;95014.56;;;8.67;100.00
20077;BME280;12348;42.710;23.378;2024-03-07T10:12:48;95008.81;;;8.39;100.00
20077;BME280;12348;42.710;23.378;2024-03-07T10:15:15;95000.84;;;8.24;100.00
20077;BME280;12348;42.710;23.378;2024-03-07T10:17:42;95003.50;;;8.29;100.00
20077;BME280;12348;42.710;23.378;2024-03-07T10:20:12;94996.50;;;8.38;100.00
20077;BME280;12348;42.710;23.378;2024-03-07T10:22:40;94996.38;;;8.54;100.00
20077;BME280;12348;42.710;23.378;2024-03-07T10:25:08;94994.47;;;8.93;100.00
20077;BME280;12348;42.710;23.378;2024-03-07T10:27:37;94988.69;;;8.76;100.00
20077;BME280;12348;42.710;23.378;2024-03-07T10:30:05;94982.78;;;8.79;100.00
20077;BME280;12348;42.710;23.378;2024-03-07T10:32:33;94991.63;;;8.80;100.00
20077;BME280;12348;42.710;23.378;2024-03-07T10:35:01;94990.78;;;8.84;100.00
20077;BME280;12348;42.710;23.378;2024-03-07T10:37:34;94990.28;;;8.77;100.00
20077;BME280;12348;42.710;23.378;2024-03-07T10:40:01;94996.06;;;8.94;100.00
20077;BME280;12348;42.710;23.378;2024-03-07T10:42:45;94997.19;;;8.88;100.00
20077;BME280;12348;42.710;23.378;2024-03-07T10:45:18;94976.56;;;8.84;100.00
20077;BME280;12348;42.710;23.378;2024-03-07T10:47:50;94986.44;;;8.88;100.00
20077;BME280;12348;42.710;23.378;2024-03-07T10:50:26;94989.63;;;8.61;100.00
20077;BME280;12348;42.710;23.378;2024-03-07T10:52:59;94996.13;;;8.84;100.00
20077;BME280;12348;42.710;23.378;2024-03-07T10:55:34;94981.91;;;8.89;100.00
20077;BME280;12348;42.710;23.378;2024-03-07T10:58:13;94995.63;;;8.48;100.00
20077;BME280;12348;42.710;23.378;2024-03-07T11:00:42;94985.59;;;8.64;100.00
20077;BME280;12348;42.710;23.378;2024-03-07T11:03:11;94990.97;;;8.59;100.00
20077;BME280;12348;42.710;23.378;2024-03-07T11:05:39;94980.47;;;8.67;100.00
20077;BME280;12348;42.710;23.378;2024-03-07T11:08:09;94988.81;;;8.61;100.00
20077;BME280;12348;42.710;23.378;2024-03-07T11:10:37;94970.88;;;8.56;100.00
20077;BME280;12348;42.710;23.378;2024-03-07T11:13:09;94966.69;;;8.40;100.00
20077;BME280;12348;42.710;23.378;2024-03-07T11:15:39;94973.69;;;8.41;100.00
20077;BME280;12348;42.710;23.378;2024-03-07T11:18:06;94980.94;;;8.40;100.00
20077;BME280;12348;42.710;23.378;2024-03-07T11:23:26;94961.16;;;8.21;100.00
20077;BME280;12348;42.710;23.378;2024-03-07T11:26:02;94972.56;;;8.47;100.00
20077;BME280;12348;42.710;23.378;2024-03-07T11:28:35;94963.75;;;8.41;100.00
20077;BME280;12348;42.710;23.378;2024-03-07T11:31:12;94971.94;;;8.16;100.00
20077;BME280;12348;42.710;23.378;2024-03-07T11:33:39;94969.66;;;8.38;100.00
20077;BME280;12348;42.710;23.378;2024-03-07T11:36:07;94980.19;;;8.24;100.00
20077;BME280;12348;42.710;23.378;2024-03-07T11:38:35;94961.75;;;8.18;100.00
20077;BME280;12348;42.710;23.378;2024-03-07T11:41:03;94970.25;;;8.30;100.00
20077;BME280;12348;42.710;23.378;2024-03-07T11:43:31;94960.19;;;8.51;100.00
20077;BME280;12348;42.710;23.378;2024-03-07T11:46:00;94970.25;;;8.25;100.00
20077;BME280;12348;42.710;23.378;2024-03-07T11:48:27;94986.63;;;8.23;100.00
20077;BME280;12348;42.710;23.378;2024-03-07T11:50:56;94981.16;;;7.94;100.00
20077;BME280;12348;42.710;23.378;2024-03-07T11:53:22;94958.41;;;7.92;100.00
20077;BME280;12348;42.710;23.378;2024-03-07T11:55:49;94961.81;;;8.02;100.00
20077;BME280;12348;42.710;23.378;2024-03-07T11:58:17;94949.75;;;8.05;100.00
20077;BME280;12348;42.710;23.378;2024-03-07T12:00:47;94954.38;;;7.94;100.00
20077;BME280;12348;42.710;23.378;2024-03-07T12:03:16;94949.50;;;7.52;100.00
20077;BME280;12348;42.710;23.378;2024-03-07T12:05:44;94950.06;;;7.44;100.00
20077;BME280;12348;42.710;23.378;2024-03-07T12:08:11;94956.38;;;7.68;100.00
20077;BME280;12348;42.710;23.378;2024-03-07T12:10:39;94944.56;;;7.74;100.00
20077;BME280;12348;42.710;23.378;2024-03-07T12:13:09;94957.16;;;7.74;100.00
20077;BME280;12348;42.710;23.378;2024-03-07T12:15:37;94951.50;;;7.75;100.00
20077;BME280;12348;42.710;23.378;2024-03-07T12:18:06;94927.59;;;7.89;100.00
20077;BME280;12348;42.710;23.378;2024-03-07T12:20:40;94949.94;;;7.69;100.00
20077;BME280;12348;42.710;23.378;2024-03-07T12:23:08;94949.41;;;7.67;100.00
20077;BME280;12348;42.710;23.378;2024-03-07T12:25:37;94933.03;;;7.74;100.00
20077;BME280;12348;42.710;23.378;2024-03-07T12:28:06;94956.66;;;7.62;100.00
20077;BME280;12348;42.710;23.378;2024-03-07T12:30:47;94934.25;;;7.42;100.00
20077;BME280;12348;42.710;23.378;2024-03-07T12:33:15;94953.00;;;7.42;100.00
20077;BME280;12348;42.710;23.378;2024-03-07T12:35:44;94942.34;;;7.32;100.00
20077;BME280;12348;42.710;23.378;2024-03-07T12:38:11;94966.38;;;7.42;100.00
20077;BME280;12348;42.710;23.378;2024-03-07T12:40:40;94944.72;;;7.44;100.00
20077;BME280;12348;42.710;23.378;2024-03-07T12:43:14;94937.97;;;7.46;100.00
20077;BME280;12348;42.710;23.378;2024-03-07T12:45:44;94948.16;;;7.49;100.00
20077;BME280;12348;42.710;23.378;2024-03-07T12:48:11;94939.88;;;7.41;100.00
20077;BME280;12348;42.710;23.378;2024-03-07T12:50:40;94954.38;;;7.35;100.00
20077;BME280;12348;42.710;23.378;2024-03-07T12:53:08;94943.91;;;7.43;100.00
20077;BME280;12348;42.710;23.378;2024-03-07T12:55:38;94941.91;;;7.64;100.00
20077;BME280;12348;42.710;23.378;2024-03-07T12:58:07;94947.59;;;7.52;100.00